Time;durP1;ratioP1;P1;durP2;ratioP2;P2;SDS_P1;SDS_P2;PMS_P1;PMS_P2;Temp;Humidity;BMP_temperature;BMP_pressure;BME280_temperature;BME280_humidity;BME280_pressure;Samples;Min_cycle;Max_cycle;Signal;HPM_P1;HPM_P2
2024/01/30 00:01:55;;;;;;;9.37;8.27;;;2.70;1.00;;;;;;5067745;28;20486;-74
2024/01/30 00:04:20;;;;;;;22.93;16.50;;;2.80;1.00;;;;;;5067961;28;20043;-74
2024/01/30 00:06:46;;;;;;;26.00;21.13;;;2.80;11.90;;;;;;5066057;28;20023;-74
2024/01/30 00:09:12;;;;;;;18.10;15.17;;;2.60;47.60;;;;;;5067009;28;20516;-74
2024/01/30 00:11:38;;;;;;;18.67;15.80;;;2.60;15.30;;;;;;5064492;28;20047;-74
2024/01/30 00:14:04;;;;;;;11.77;9.77;;;2.60;16.70;;;;;;5064754;28;20024;-74
2024/01/30 00:16:30;;;;;;;27.33;18.33;;;2.70;1.00;;;;;;5068932;28;20021;-74
2024/01/30 00:18:56;;;;;;;14.03;11.80;;;2.60;41.40;;;;;;5069774;28;20051;-74
2024/01/30 00:21:21;;;;;;;10.67;9.53;;;2.70;1.00;;;;;;5063865;28;20972;-73
2024/01/30 00:23:47;;;;;;;14.80;10.10;;;2.70;1.00;;;;;;5068601;28;20028;-75
2024/01/30 00:26:16;;;;;;;9.53;7.30;;;2.80;1.00;;;;;;5066788;28;20017;-74
2024/01/30 00:28:43;;;;;;;7.37;6.67;;;2.90;1.00;;;;;;5066794;28;20021;-73
2024/01/30 00:31:12;;;;;;;7.53;6.82;;;3.00;1.00;;;;;;5068975;28;20475;-74
2024/01/30 00:33:39;;;;;;;8.17;6.20;;;3.10;1.00;;;;;;5066444;28;20029;-74
2024/01/30 00:36:06;;;;;;;6.93;6.27;;;3.10;1.00;;;;;;5064620;28;20022;-73
2024/01/30 00:38:32;;;;;;;6.83;6.13;;;3.20;1.00;;;;;;5067473;28;20487;-73
2024/01/30 00:40:58;;;;;;;7.10;6.50;;;3.20;1.00;;;;;;5065175;28;20071;-74
2024/01/30 00:43:25;;;;;;;16.03;13.10;;;3.30;99.90;;;;;;5066037;28;20055;-74
2024/01/30 00:45:52;;;;;;;16.42;13.77;;;3.20;1.00;;;;;;5066664;28;20020;-74
2024/01/30 00:48:18;;;;;;;11.13;8.88;;;3.10;1.00;;;;;;5067506;28;20013;-73
2024/01/30 00:50:44;;;;;;;11.65;8.52;;;3.00;1.00;;;;;;5065429;28;20012;-74
2024/01/30 00:53:09;;;;;;;13.23;10.38;;;3.00;1.00;;;;;;5068377;28;20020;-73
2024/01/30 00:55:35;;;;;;;19.10;14.83;;;3.00;1.00;;;;;;5065436;28;20028;-74
2024/01/30 00:58:01;;;;;;;16.70;14.07;;;2.90;1.00;;;;;;5067401;28;20028;-74
2024/01/30 01:00:29;;;;;;;18.50;14.43;;;2.70;12.50;;;;;;5067565;28;20083;-74
2024/01/30 01:02:58;;;;;;;19.33;13.73;;;2.70;15.30;;;;;;5065250;28;20487;-74
2024/01/30 01:05:24;;;;;;;19.53;15.27;;;2.60;15.20;;;;;;5068231;28;20017;-74
2024/01/30 01:07:49;;;;;;;24.47;16.40;;;2.50;20.90;;;;;;5066540;28;20034;-73
2024/01/30 01:10:17;;;;;;;20.90;15.67;;;2.40;25.30;;;;;;5063928;28;20078;-74
2024/01/30 01:12:43;;;;;;;18.27;14.85;;;2.40;27.40;;;;;;5066290;28;20032;-74
2024/01/30 01:15:09;;;;;;;16.77;13.27;;;2.30;31.20;;;;;;5067390;28;20028;-74
2024/01/30 01:17:36;;;;;;;16.80;12.37;;;2.30;26.20;;;;;;5067499;28;20026;-73
2024/01/30 01:20:03;;;;;;;14.57;12.90;;;2.20;32.30;;;;;;5064977;28;20027;-73
2024/01/30 01:22:29;;;;;;;15.77;13.33;;;2.20;27.80;;;;;;5065046;28;20027;-74
2024/01/30 01:24:54;;;;;;;14.17;12.67;;;2.20;36.20;;;;;;5067423;28;20025;-73
2024/01/30 01:27:21;;;;;;;15.67;12.87;;;2.10;41.50;;;;;;5066779;28;20052;-74
2024/01/30 01:29:46;;;;;;;14.53;12.60;;;2.00;49.00;;;;;;5066875;28;20392;-74
2024/01/30 01:32:12;;;;;;;15.73;11.93;;;2.00;42.50;;;;;;5065514;28;20100;-74
2024/01/30 01:34:38;;;;;;;16.03;12.43;;;1.90;30.40;;;;;;5066968;28;20115;-74
2024/01/30 01:37:04;;;;;;;13.53;12.10;;;1.90;39.60;;;;;;5065341;28;20025;-73
2024/01/30 01:39:30;;;;;;;14.27;11.07;;;1.80;45.40;;;;;;5065543;28;20486;-74
2024/01/30 01:41:55;;;;;;;19.70;12.70;;;1.80;55.20;;;;;;5066594;28;20052;-74
2024/01/30 01:44:21;;;;;;;15.50;12.73;;;1.70;54.90;;;;;;5066294;28;20089;-74
2024/01/30 01:46:48;;;;;;;15.80;12.30;;;1.70;58.00;;;;;;5066308;28;20013;-73
2024/01/30 01:49:14;;;;;;;13.97;12.57;;;1.70;52.90;;;;;;5066422;28;20428;-73
2024/01/30 01:51:42;;;;;;;13.83;12.43;;;1.70;53.70;;;;;;5070088;28;20016;-74
2024/01/30 01:54:08;;;;;;;15.00;13.23;;;1.70;46.90;;;;;;5065666;28;20115;-74
2024/01/30 01:56:34;;;;;;;16.70;13.13;;;1.70;56.50;;;;;;5066975;28;20035;-73
2024/01/30 01:59:05;;;;;;;15.37;12.80;;;1.60;60.40;;;;;;5065400;28;20032;-73
2024/01/30 02:01:32;;;;;;;17.83;13.33;;;1.60;41.30;;;;;;5067121;28;20060;-73
2024/01/30 02:03:59;;;;;;;17.83;13.57;;;1.50;59.90;;;;;;5065384;28;20359;-74
2024/01/30 02:06:26;;;;;;;19.30;15.07;;;1.50;72.80;;;;;;5065262;28;20111;-73
2024/01/30 02:08:51;;;;;;;15.83;13.07;;;1.50;67.00;;;;;;5066680;28;20016;-74
2024/01/30 02:11:18;;;;;;;14.90;13.00;;;1.50;67.10;;;;;;5064940;28;20107;-74
2024/01/30 02:13:43;;;;;;;16.53;13.67;;;1.50;67.30;;;;;;5064419;28;20403;-73
2024/01/30 02:16:10;;;;;;;15.13;12.70;;;1.50;62.60;;;;;;5065953;28;20032;-73
2024/01/30 02:18:41;;;;;;;15.33;12.60;;;1.50;47.60;;;;;;5068254;28;20479;-74
2024/01/30 02:21:07;;;;;;;17.67;13.18;;;1.40;50.90;;;;;;5065112;28;20227;-74
2024/01/30 02:23:34;;;;;;;16.30;13.07;;;1.40;67.50;;;;;;5063661;28;20470;-73
2024/01/30 02:26:00;;;;;;;17.60;14.20;;;1.40;64.30;;;;;;5066317;28;20101;-74
2024/01/30 02:28:27;;;;;;;14.60;12.67;;;1.40;63.30;;;;;;5064486;28;20387;-74
2024/01/30 02:30:53;;;;;;;15.80;13.33;;;1.40;72.90;;;;;;5064130;28;20024;-74
2024/01/30 02:33:19;;;;;;;15.87;12.43;;;1.50;76.60;;;;;;5069068;28;20024;-74
2024/01/30 02:35:44;;;;;;;14.13;12.53;;;1.50;74.40;;;;;;5070431;28;20425;-74
2024/01/30 02:38:10;;;;;;;16.27;12.87;;;1.40;55.90;;;;;;5071242;28;20488;-74
2024/01/30 02:40:36;;;;;;;15.53;13.20;;;1.30;41.50;;;;;;5067088;28;20025;-73
2024/01/30 02:43:03;;;;;;;14.73;12.63;;;1.20;58.60;;;;;;5068634;28;20111;-74
2024/01/30 02:45:28;;;;;;;15.70;12.50;;;1.20;57.30;;;;;;5070816;28;20048;-73
2024/01/30 02:47:54;;;;;;;15.40;12.87;;;1.20;68.20;;;;;;5071003;28;20111;-73
2024/01/30 02:50:20;;;;;;;13.40;12.03;;;1.20;71.50;;;;;;5070662;28;20017;-73
2024/01/30 02:52:46;;;;;;;15.87;13.30;;;1.20;70.80;;;;;;5068803;28;20383;-73
2024/01/30 02:55:12;;;;;;;15.10;12.53;;;1.20;78.00;;;;;;5070132;28;20036;-74
2024/01/30 02:57:38;;;;;;;16.80;13.60;;;1.10;65.50;;;;;;5069422;28;20036;-73
2024/01/30 03:00:06;;;;;;;17.00;14.00;;;1.10;67.10;;;;;;5069607;28;20072;-73
2024/01/30 03:02:32;;;;;;;16.17;12.57;;;1.10;74.80;;;;;;5066758;28;20121;-74
2024/01/30 03:04:59;;;;;;;15.57;12.67;;;1.10;75.20;;;;;;5069612;28;20071;-73
2024/01/30 03:07:24;;;;;;;13.87;11.40;;;1.10;66.60;;;;;;5069076;28;20498;-73
2024/01/30 03:09:50;;;;;;;12.23;10.93;;;1.20;72.40;;;;;;5067739;28;20013;-73
2024/01/30 03:12:16;;;;;;;17.50;11.73;;;1.20;59.50;;;;;;5069257;28;20421;-73
2024/01/30 03:14:41;;;;;;;14.43;10.97;;;1.20;63.90;;;;;;5070276;28;20029;-73
2024/01/30 03:17:07;;;;;;;12.80;11.43;;;1.20;50.70;;;;;;5068760;28;20028;-74
2024/01/30 03:19:33;;;;;;;19.27;15.47;;;1.10;48.70;;;;;;5069019;28;20021;-74
2024/01/30 03:21:59;;;;;;;24.97;16.73;;;1.20;57.50;;;;;;5068751;28;20025;-73
2024/01/30 03:24:25;;;;;;;25.00;19.37;;;1.10;58.30;;;;;;5068492;28;20036;-74
2024/01/30 03:26:51;;;;;;;22.73;18.00;;;1.10;60.50;;;;;;5066606;28;20021;-74
2024/01/30 03:29:17;;;;;;;20.13;16.00;;;1.10;49.80;;;;;;5066295;28;20027;-74
2024/01/30 03:31:42;;;;;;;17.97;14.47;;;1.10;54.90;;;;;;5069469;28;20017;-73
2024/01/30 03:34:08;;;;;;;14.47;12.17;;;1.10;51.30;;;;;;5070538;28;20023;-73
2024/01/30 03:36:34;;;;;;;13.77;11.87;;;1.00;43.50;;;;;;5069005;28;20034;-74
2024/01/30 03:39:00;;;;;;;12.17;10.97;;;1.10;56.00;;;;;;5068270;28;20033;-74
2024/01/30 03:41:26;;;;;;;13.77;11.20;;;1.00;57.60;;;;;;5070115;28;20027;-73
2024/01/30 03:43:52;;;;;;;13.53;11.43;;;1.00;61.90;;;;;;5068623;28;20041;-73
2024/01/30 03:46:18;;;;;;;14.60;10.63;;;0.90;64.50;;;;;;5068334;28;20025;-73
2024/01/30 03:48:44;;;;;;;12.40;11.10;;;1.00;68.80;;;;;;5068537;28;20021;-73
2024/01/30 03:51:14;;;;;;;12.73;10.70;;;1.00;70.20;;;;;;5065718;28;20027;-75
2024/01/30 03:53:43;;;;;;;12.10;10.80;;;1.00;64.90;;;;;;5068246;28;20409;-74
2024/01/30 03:56:09;;;;;;;12.13;10.37;;;1.00;70.40;;;;;;5067781;28;20012;-74
2024/01/30 03:58:35;;;;;;;11.37;10.10;;;1.10;67.60;;;;;;5068855;28;20047;-74
2024/01/30 04:01:01;;;;;;;14.53;9.97;;;1.10;61.40;;;;;;5068634;28;20040;-73
2024/01/30 04:03:27;;;;;;;13.20;10.67;;;1.10;59.00;;;;;;5068071;28;20055;-73
2024/01/30 04:05:53;;;;;;;9.63;8.63;;;1.10;51.70;;;;;;5065680;28;20079;-74
2024/01/30 04:08:19;;;;;;;11.17;9.13;;;1.10;47.20;;;;;;5068383;28;20103;-74
2024/01/30 04:10:45;;;;;;;11.27;8.60;;;1.20;38.80;;;;;;5064236;28;20009;-73
2024/01/30 04:13:11;;;;;;;7.57;6.83;;;1.10;28.90;;;;;;5065775;28;20109;-74
2024/01/30 04:15:37;;;;;;;7.53;6.33;;;1.30;13.40;;;;;;5070814;28;20082;-73
2024/01/30 04:18:03;;;;;;;7.10;6.40;;;1.40;1.00;;;;;;5068166;28;20075;-74
2024/01/30 04:20:29;;;;;;;8.03;6.50;;;1.60;1.00;;;;;;5067631;28;20035;-73
2024/01/30 04:22:55;;;;;;;9.43;6.90;;;1.80;1.00;;;;;;5069150;28;20149;-73
2024/01/30 04:25:21;;;;;;;12.50;8.00;;;1.70;1.00;;;;;;5066202;28;20111;-73
2024/01/30 04:27:46;;;;;;;10.23;8.60;;;1.70;12.60;;;;;;5063095;28;20025;-73
2024/01/30 04:30:12;;;;;;;8.97;7.90;;;1.70;13.70;;;;;;5064818;28;20024;-73
2024/01/30 04:32:38;;;;;;;10.43;6.97;;;1.60;2.40;;;;;;5067949;28;20390;-73
2024/01/30 04:35:04;;;;;;;9.67;7.43;;;1.60;1.00;;;;;;5069125;28;20493;-74
2024/01/30 04:37:30;;;;;;;8.30;7.30;;;1.60;1.00;;;;;;5067534;28;20020;-73
2024/01/30 04:39:56;;;;;;;10.90;7.20;;;1.60;1.00;;;;;;5062047;28;20040;-73
2024/01/30 04:42:22;;;;;;;8.33;7.03;;;1.50;1.00;;;;;;5067160;28;20179;-74
2024/01/30 04:44:48;;;;;;;9.03;6.37;;;1.60;1.00;;;;;;5067529;28;20037;-73
2024/01/30 04:47:14;;;;;;;8.50;7.07;;;1.70;1.00;;;;;;5067975;28;20021;-74
2024/01/30 04:49:39;;;;;;;8.43;6.40;;;1.70;1.00;;;;;;5068586;28;20021;-73
2024/01/30 04:52:06;;;;;;;8.67;6.47;;;1.80;1.00;;;;;;5065785;28;20547;-73
2024/01/30 04:54:32;;;;;;;9.00;6.77;;;1.80;1.00;;;;;;5067565;28;20066;-74
2024/01/30 04:56:58;;;;;;;7.10;6.47;;;1.80;1.00;;;;;;5066131;28;20253;-73
2024/01/30 04:59:24;;;;;;;9.63;6.87;;;1.80;1.00;;;;;;5067582;28;20561;-74
2024/01/30 05:01:50;;;;;;;7.57;6.83;;;1.70;1.00;;;;;;5065856;28;20025;-74
2024/01/30 05:04:16;;;;;;;9.23;6.80;;;1.70;1.00;;;;;;5066242;28;20490;-73
2024/01/30 05:06:42;;;;;;;7.57;6.50;;;1.60;1.00;;;;;;5064666;28;20028;-73
2024/01/30 05:09:08;;;;;;;8.10;7.30;;;1.60;1.00;;;;;;5067249;28;20048;-73
2024/01/30 05:11:38;;;;;;;8.63;6.93;;;1.70;1.00;;;;;;5069642;28;20077;-73
2024/01/30 05:14:05;;;;;;;8.77;6.33;;;1.70;1.00;;;;;;5067085;28;20017;-73
2024/01/30 05:16:31;;;;;;;8.90;6.60;;;1.80;1.00;;;;;;5067888;28;20027;-73
2024/01/30 05:18:57;;;;;;;9.90;6.97;;;1.80;1.00;;;;;;5065614;28;20025;-73
2024/01/30 05:21:23;;;;;;;8.43;6.47;;;1.80;1.00;;;;;;5065581;28;20498;-73
2024/01/30 05:23:48;;;;;;;9.80;6.43;;;1.80;1.00;;;;;;5066512;28;20067;-73
2024/01/30 05:26:14;;;;;;;7.67;6.43;;;1.80;1.00;;;;;;5068718;28;20021;-74
2024/01/30 05:28:40;;;;;;;7.50;6.47;;;1.90;1.00;;;;;;5064773;28;20021;-73
2024/01/30 05:31:06;;;;;;;9.40;7.00;;;2.00;1.00;;;;;;5066267;28;20257;-73
2024/01/30 05:33:31;;;;;;;16.23;6.80;;;2.00;1.00;;;;;;5064737;28;20021;-74
2024/01/30 05:35:57;;;;;;;7.97;5.97;;;2.10;1.00;;;;;;5065775;28;20021;-73
2024/01/30 05:38:23;;;;;;;8.00;6.43;;;2.20;1.00;;;;;;5066892;28;20023;-73
2024/01/30 05:40:48;;;;;;;8.90;6.50;;;2.30;1.00;;;;;;5063150;28;20087;-73
2024/01/30 05:43:14;;;;;;;14.07;5.90;;;2.40;1.00;;;;;;5066725;28;20017;-74
2024/01/30 05:45:40;;;;;;;7.17;5.97;;;2.50;1.00;;;;;;5068631;28;20020;-73
2024/01/30 05:48:06;;;;;;;7.17;5.47;;;2.50;1.00;;;;;;5065693;28;20020;-74
2024/01/30 05:50:32;;;;;;;10.83;6.30;;;2.60;1.00;;;;;;5067418;28;20074;-74
2024/01/30 05:52:58;;;;;;;8.63;6.17;;;2.60;1.00;;;;;;5066036;28;20433;-73
2024/01/30 05:55:23;;;;;;;9.83;6.07;;;2.70;99.90;;;;;;5066353;28;20059;-74
2024/01/30 05:57:50;;;;;;;10.67;5.80;;;2.70;99.90;;;;;;5065805;28;20040;-73
2024/01/30 06:00:16;;;;;;;15.03;6.77;;;2.70;99.90;;;;;;5065655;28;20029;-74
2024/01/30 06:02:42;;;;;;;11.63;6.17;;;2.80;99.90;;;;;;5066922;28;20390;-73
2024/01/30 06:05:08;;;;;;;8.50;5.77;;;2.90;99.90;;;;;;5066473;28;20024;-73
2024/01/30 06:07:34;;;;;;;11.63;6.40;;;2.90;99.90;;;;;;5070469;28;20029;-73
2024/01/30 06:10:01;;;;;;;11.30;6.90;;;2.90;99.90;;;;;;5066080;28;20056;-73
2024/01/30 06:12:28;;;;;;;8.87;5.93;;;2.90;99.90;;;;;;5066062;28;20047;-73
2024/01/30 06:14:56;;;;;;;10.53;6.23;;;2.90;99.90;;;;;;5070201;28;20028;-72
2024/01/30 06:17:22;;;;;;;9.53;6.43;;;3.00;99.90;;;;;;5069353;28;20013;-73
2024/01/30 06:19:48;;;;;;;8.33;5.77;;;3.00;99.90;;;;;;5068338;28;20090;-73
2024/01/30 06:22:14;;;;;;;7.93;6.20;;;3.00;99.90;;;;;;5065638;28;20029;-73
2024/01/30 06:24:39;;;;;;;7.53;5.40;;;3.10;99.90;;;;;;5069723;28;20474;-74
2024/01/30 06:27:05;;;;;;;15.13;7.40;;;3.00;99.90;;;;;;5070428;28;20013;-73
2024/01/30 06:29:31;;;;;;;10.47;6.73;;;3.00;99.90;;;;;;5064383;28;20021;-73
2024/01/30 06:31:57;;;;;;;9.80;6.73;;;3.00;99.90;;;;;;5065506;28;20361;-73
2024/01/30 06:34:22;;;;;;;15.15;8.88;;;3.00;99.90;;;;;;5066818;28;20059;-73
2024/01/30 06:36:48;;;;;;;17.65;7.65;;;2.90;99.90;;;;;;5067984;28;20123;-74
2024/01/30 06:39:14;;;;;;;9.25;6.18;;;2.90;99.90;;;;;;5067958;28;20024;-73
2024/01/30 06:41:40;;;;;;;6.50;5.43;;;3.00;99.90;;;;;;5068143;28;20016;-74
2024/01/30 06:44:08;;;;;;;7.82;5.80;;;3.10;99.90;;;;;;5063898;28;20158;-73
2024/01/30 06:46:34;;;;;;;18.77;12.80;;;3.10;99.90;;;;;;5068399;28;20013;-73
2024/01/30 06:48:59;;;;;;;29.10;17.20;;;3.00;99.90;;;;;;5068837;28;20020;-74
2024/01/30 06:51:25;;;;;;;17.67;13.17;;;2.80;1.00;;;;;;5069908;28;20016;-73
2024/01/30 06:53:51;;;;;;;16.67;10.10;;;2.70;1.00;;;;;;5068400;28;20021;-74
2024/01/30 06:56:20;;;;;;;14.57;9.63;;;2.50;1.00;;;;;;5068730;28;20031;-73
2024/01/30 06:58:55;;;;;;;14.17;10.73;;;2.40;1.00;;;;;;5067063;28;20071;-74
2024/01/30 07:01:28;;;;;;;15.57;11.67;;;2.20;1.00;;;;;;5067789;28;20048;-73
2024/01/30 07:03:54;;;;;;;17.40;11.37;;;2.10;1.00;;;;;;5065286;28;20090;-73
2024/01/30 07:06:20;;;;;;;15.43;11.93;;;2.00;1.00;;;;;;5067772;28;20037;-73
2024/01/30 07:08:46;;;;;;;16.43;12.07;;;1.90;1.00;;;;;;5068801;28;20035;-73
2024/01/30 07:11:19;;;;;;;17.73;13.90;;;1.90;1.00;;;;;;5067366;28;20027;-72
2024/01/30 07:13:46;;;;;;;26.63;16.50;;;1.80;1.00;;;;;;5067427;28;20013;-73
2024/01/30 07:16:12;;;;;;;24.50;16.97;;;1.80;1.00;;;;;;5069043;28;20026;-73
2024/01/30 07:18:38;;;;;;;26.40;18.73;;;1.80;1.00;;;;;;5063592;28;20016;-73
2024/01/30 07:21:04;;;;;;;25.77;18.97;;;1.80;6.40;;;;;;5067627;28;20020;-73
2024/01/30 07:23:30;;;;;;;31.03;20.80;;;1.80;11.60;;;;;;5070218;28;20078;-73
2024/01/30 07:25:55;;;;;;;34.40;23.30;;;1.80;19.00;;;;;;5067520;28;20473;-73
2024/01/30 07:28:21;;;;;;;44.47;27.43;;;1.70;28.50;;;;;;5069031;28;20021;-73
2024/01/30 07:30:48;;;;;;;46.80;24.40;;;1.70;38.50;;;;;;5068683;28;20044;-73
2024/01/30 07:33:14;;;;;;;33.57;19.63;;;1.70;35.30;;;;;;5068485;28;20017;-73
2024/01/30 07:35:39;;;;;;;23.70;15.77;;;1.80;26.00;;;;;;5067073;28;20065;-74
2024/01/30 07:38:05;;;;;;;35.80;17.23;;;1.80;23.20;;;;;;5067668;28;20074;-73
2024/01/30 07:40:33;;;;;;;28.47;17.50;;;1.90;37.30;;;;;;5067519;28;20059;-73
2024/01/30 07:42:59;;;;;;;31.40;17.73;;;2.20;49.80;;;;;;5069064;28;20101;-73
2024/01/30 07:45:25;;;;;;;40.53;19.50;;;2.10;29.60;;;;;;5068007;28;20115;-73
2024/01/30 07:47:51;;;;;;;34.87;22.73;;;2.10;25.50;;;;;;5069132;28;20047;-73
2024/01/30 07:50:17;;;;;;;46.40;26.87;;;2.20;24.30;;;;;;5069629;28;20028;-73
2024/01/30 07:52:43;;;;;;;36.67;24.80;;;2.20;26.70;;;;;;5068205;28;20406;-73
2024/01/30 07:55:09;;;;;;;35.20;24.33;;;2.20;45.70;;;;;;5066556;28;20474;-73
2024/01/30 07:57:35;;;;;;;45.63;26.10;;;2.20;50.70;;;;;;5067806;28;20108;-74
2024/01/30 08:00:03;;;;;;;36.83;24.23;;;2.30;42.50;;;;;;5069213;28;20103;-73
2024/01/30 08:02:28;;;;;;;32.43;23.03;;;2.30;42.10;;;;;;5066588;28;20040;-73
2024/01/30 08:04:54;;;;;;;31.53;21.03;;;2.40;37.30;;;;;;5067657;28;20029;-73
2024/01/30 08:07:21;;;;;;;41.57;23.03;;;2.40;50.70;;;;;;5066187;28;20042;-73
2024/01/30 08:09:47;;;;;;;32.67;22.40;;;2.40;56.30;;;;;;5067771;28;20020;-73
2024/01/30 08:12:13;;;;;;;35.80;22.73;;;2.50;57.00;;;;;;5067796;28;20044;-74
2024/01/30 08:14:41;;;;;;;37.03;23.67;;;2.50;53.30;;;;;;5064782;28;20029;-73
2024/01/30 08:17:07;;;;;;;38.20;25.67;;;2.60;55.60;;;;;;5068363;28;20020;-73
2024/01/30 08:19:33;;;;;;;39.93;27.20;;;2.60;69.60;;;;;;5068034;28;20024;-73
2024/01/30 08:21:59;;;;;;;37.30;27.47;;;2.60;74.30;;;;;;5067824;28;20021;-73
2024/01/30 08:24:24;;;;;;;42.17;28.23;;;2.60;85.30;;;;;;5066570;28;20095;-73
2024/01/30 08:26:50;;;;;;;41.23;28.63;;;2.60;85.70;;;;;;5067064;28;20025;-74
2024/01/30 08:29:16;;;;;;;41.40;28.77;;;2.60;79.90;;;;;;5064888;28;20025;-74
2024/01/30 08:31:42;;;;;;;44.20;28.57;;;2.60;77.30;;;;;;5068666;28;20096;-73
2024/01/30 08:34:08;;;;;;;52.63;35.87;;;2.70;86.70;;;;;;5065901;28;20447;-73
2024/01/30 08:36:33;;;;;;;56.87;39.73;;;2.60;91.90;;;;;;5066673;28;20261;-73
2024/01/30 08:38:59;;;;;;;65.00;40.27;;;2.50;97.00;;;;;;5068209;28;20399;-73
2024/01/30 08:41:25;;;;;;;60.30;39.80;;;2.50;96.90;;;;;;5067389;28;20093;-73
2024/01/30 08:43:51;;;;;;;55.80;38.73;;;2.50;99.00;;;;;;5065532;28;20059;-73
2024/01/30 08:46:18;;;;;;;57.33;37.07;;;2.60;97.80;;;;;;5066495;28;20025;-73
2024/01/30 08:48:44;;;;;;;54.90;35.10;;;2.60;95.00;;;;;;5067207;28;20031;-73
2024/01/30 08:51:11;;;;;;;55.83;34.83;;;2.70;91.00;;;;;;5066231;28;20043;-73
2024/01/30 08:53:36;;;;;;;57.13;33.33;;;2.70;82.00;;;;;;5067413;28;20425;-74
2024/01/30 08:56:03;;;;;;;50.83;34.73;;;2.80;85.30;;;;;;5066945;28;20074;-73
2024/01/30 08:58:29;;;;;;;49.63;32.57;;;2.80;82.60;;;;;;5067934;28;20032;-73
2024/01/30 09:00:55;;;;;;;35.80;24.40;;;2.90;69.20;;;;;;5065043;28;20078;-73
2024/01/30 09:03:20;;;;;;;39.67;26.50;;;2.90;48.50;;;;;;5064605;28;20024;-73
2024/01/30 09:05:46;;;;;;;42.37;27.43;;;3.00;36.10;;;;;;5065803;28;20017;-73
2024/01/30 09:08:12;;;;;;;35.80;26.23;;;3.00;40.40;;;;;;5070107;28;20025;-73
2024/01/30 09:10:38;;;;;;;36.00;27.07;;;3.10;51.20;;;;;;5066347;28;20020;-73
2024/01/30 09:13:03;;;;;;;38.20;27.20;;;3.20;56.20;;;;;;5066306;28;20111;-73
2024/01/30 09:15:29;;;;;;;43.70;26.00;;;3.20;54.30;;;;;;5067414;28;20086;-73
2024/01/30 09:17:55;;;;;;;36.80;27.50;;;3.30;43.20;;;;;;5065659;28;20032;-73
2024/01/30 09:20:22;;;;;;;45.38;28.55;;;3.40;54.20;;;;;;5068100;28;20032;-74
2024/01/30 09:22:49;;;;;;;39.17;24.02;;;3.50;59.90;;;;;;5066633;28;20475;-73
2024/01/30 09:25:15;;;;;;;43.55;24.60;;;3.60;51.70;;;;;;5064735;28;20025;-73
2024/01/30 09:27:40;;;;;;;41.38;24.70;;;3.60;47.90;;;;;;5066293;28;20543;-73
2024/01/30 09:30:07;;;;;;;36.17;26.10;;;3.80;41.30;;;;;;5066368;28;20017;-73
2024/01/30 09:32:33;;;;;;;42.35;24.65;;;3.90;52.40;;;;;;5066266;28;20069;-73
2024/01/30 09:34:58;;;;;;;35.13;25.45;;;4.00;51.80;;;;;;5066376;28;20593;-73
2024/01/30 09:37:24;;;;;;;33.35;24.80;;;4.10;51.50;;;;;;5066161;28;20028;-73
2024/01/30 09:39:50;;;;;;;32.95;23.30;;;4.20;51.30;;;;;;5063782;28;20017;-73
2024/01/30 09:42:38;;;;;;;39.28;26.85;;;4.20;42.00;;;;;;5066829;28;20024;-73
2024/01/30 09:45:05;;;;;;;43.20;30.13;;;4.20;50.60;;;;;;5063946;28;20392;-74
2024/01/30 09:47:45;;;;;;;44.67;31.40;;;4.20;56.60;;;;;;5067742;28;20489;-74
2024/01/30 09:50:12;;;;;;;43.08;32.45;;;4.30;62.70;;;;;;5063881;28;20264;-73
2024/01/30 09:52:39;;;;;;;47.85;33.25;;;4.40;70.30;;;;;;5065571;28;20020;-73
2024/01/30 09:55:08;;;;;;;47.53;34.85;;;4.50;63.10;;;;;;5065173;28;20025;-73
2024/01/30 09:57:37;;;;;;;51.72;36.28;;;4.50;58.00;;;;;;5066323;28;20021;-73
2024/01/30 10:00:04;;;;;;;53.63;37.90;;;4.60;51.00;;;;;;5066355;28;20090;-73
2024/01/30 10:02:32;;;;;;;56.33;37.17;;;4.60;53.20;;;;;;5063725;28;20036;-74
2024/01/30 10:04:57;;;;;;;55.40;38.78;;;4.60;30.30;;;;;;5066239;28;20024;-74
2024/01/30 10:07:23;;;;;;;56.10;38.67;;;4.70;32.30;;;;;;5066009;28;20017;-73
2024/01/30 10:09:49;;;;;;;62.55;39.90;;;4.80;57.60;;;;;;5067226;28;20509;-73
2024/01/30 10:12:15;;;;;;;58.53;39.03;;;4.90;47.30;;;;;;5065459;28;20058;-73
2024/01/30 10:14:42;;;;;;;57.15;39.83;;;5.00;31.80;;;;;;5066450;28;20019;-73
2024/01/30 10:17:09;;;;;;;49.08;34.08;;;5.10;30.10;;;;;;5063665;28;20598;-73
2024/01/30 10:19:36;;;;;;;40.35;31.05;;;5.10;1.00;;;;;;5067699;28;20234;-73
2024/01/30 10:22:03;;;;;;;43.42;33.08;;;5.10;1.00;;;;;;5062598;28;20028;-74
2024/01/30 10:24:32;;;;;;;47.78;31.30;;;5.10;1.00;;;;;;5066751;28;20105;-73
2024/01/30 10:26:58;;;;;;;41.88;31.13;;;5.20;1.00;;;;;;5066328;28;20032;-73
2024/01/30 10:29:24;;;;;;;44.45;30.88;;;5.20;1.00;;;;;;5066228;28;20021;-74
2024/01/30 10:32:04;;;;;;;43.67;32.17;;;5.40;1.00;;;;;;5066283;28;20481;-73
2024/01/30 10:34:30;;;;;;;45.55;31.23;;;5.40;1.00;;;;;;5067548;28;20029;-74
2024/01/30 10:37:15;;;;;;;42.65;31.15;;;5.60;1.00;;;;;;5064654;28;20055;-74
2024/01/30 10:39:42;;;;;;;43.00;29.77;;;5.60;1.00;;;;;;5065911;28;20021;-74
2024/01/30 10:42:13;;;;;;;42.08;29.80;;;5.80;1.00;;;;;;5067356;28;20399;-73
2024/01/30 10:44:54;;;;;;;44.40;33.10;;;5.90;1.00;;;;;;5063857;28;20408;-73
2024/01/30 10:47:27;;;;;;;46.85;31.83;;;6.10;1.00;;;;;;5064424;28;20031;-74
2024/01/30 10:49:54;;;;;;;41.47;29.42;;;6.10;1.00;;;;;;5067099;28;20017;-74
2024/01/30 10:52:22;;;;;;;42.00;32.30;;;6.20;1.00;;;;;;5066459;28;20017;-74
2024/01/30 10:54:50;;;;;;;44.15;29.80;;;6.20;1.00;;;;;;5069653;28;20402;-75
2024/01/30 10:57:16;;;;;;;39.38;29.38;;;6.30;1.00;;;;;;5069589;28;20020;-74
2024/01/30 10:59:43;;;;;;;39.78;28.30;;;6.40;1.00;;;;;;5067904;28;20146;-74
2024/01/30 11:02:10;;;;;;;41.40;30.00;;;6.50;1.00;;;;;;5068820;28;20012;-74
2024/01/30 11:04:37;;;;;;;47.05;30.58;;;6.60;1.00;;;;;;5063196;28;20025;-74
2024/01/30 11:07:14;;;;;;;40.20;29.08;;;6.60;1.00;;;;;;5071620;28;20056;-74
2024/01/30 11:09:41;;;;;;;46.03;31.88;;;6.70;99.90;;;;;;5068808;28;20090;-74
2024/01/30 11:12:12;;;;;;;40.35;31.02;;;6.70;99.90;;;;;;5069880;28;20026;-74
2024/01/30 11:14:40;;;;;;;45.15;32.50;;;6.90;99.90;;;;;;5068089;28;20065;-74
2024/01/30 11:17:06;;;;;;;44.45;32.90;;;6.90;99.90;;;;;;5070238;28;20021;-74
2024/01/30 11:19:33;;;;;;;47.10;32.85;;;6.90;1.00;;;;;;5070792;28;20025;-74
2024/01/30 11:22:00;;;;;;;43.33;32.90;;;7.00;1.00;;;;;;5069239;28;20030;-74
2024/01/30 11:24:26;;;;;;;48.80;32.40;;;7.10;99.90;;;;;;5068767;28;20032;-74
2024/01/30 11:26:59;;;;;;;45.15;31.98;;;7.20;99.90;;;;;;5068595;28;20020;-74
2024/01/30 11:29:26;;;;;;;39.47;30.42;;;7.30;99.90;;;;;;5066648;28;20051;-72
2024/01/30 11:31:56;;;;;;;39.28;28.05;;;7.30;99.90;;;;;;5070049;28;20019;-74
2024/01/30 11:34:23;;;;;;;42.08;28.70;;;7.30;99.90;;;;;;5068077;28;20040;-74
2024/01/30 11:36:59;;;;;;;36.38;27.65;;;7.40;99.90;;;;;;5068537;28;20024;-74
2024/01/30 11:39:29;;;;;;;44.05;28.08;;;7.40;99.90;;;;;;5069372;28;20104;-74
2024/01/30 11:41:56;;;;;;;36.78;27.00;;;7.50;99.90;;;;;;5069353;28;20025;-74
2024/01/30 11:44:22;;;;;;;37.67;27.17;;;7.50;99.90;;;;;;5067769;28;20032;-73
2024/01/30 11:46:49;;;;;;;32.58;23.75;;;7.50;99.90;;;;;;5069365;28;20016;-72
2024/01/30 11:49:15;;;;;;;33.58;21.98;;;7.50;99.90;;;;;;5067094;28;20388;-74
2024/01/30 11:51:41;;;;;;;35.40;22.67;;;7.60;99.90;;;;;;5067606;28;20019;-74
2024/01/30 11:54:07;;;;;;;32.38;23.27;;;7.60;99.90;;;;;;5068900;28;20103;-74
2024/01/30 11:56:33;;;;;;;32.15;22.08;;;7.60;99.90;;;;;;5068580;28;20556;-74
2024/01/30 11:59:00;;;;;;;28.25;20.98;;;7.70;99.90;;;;;;5068389;28;20017;-74
2024/01/30 12:01:27;;;;;;;33.58;20.75;;;7.70;99.90;;;;;;5065757;28;20075;-76
2024/01/30 12:03:52;;;;;;;35.33;20.13;;;7.70;99.90;;;;;;5067567;28;20044;-77
2024/01/30 12:06:18;;;;;;;26.95;19.90;;;7.80;10.60;;;;;;5062719;28;20059;-77
2024/01/30 12:08:57;;;;;;;39.80;22.20;;;7.80;1.00;;;;;;5066655;28;20558;-77
2024/01/30 12:11:23;;;;;;;35.17;21.60;;;7.90;99.90;;;;;;5070155;28;20104;-77
2024/01/30 12:13:50;;;;;;;30.85;20.75;;;8.00;1.00;;;;;;5064076;28;20103;-77
2024/01/30 12:16:17;;;;;;;29.90;20.67;;;8.10;1.00;;;;;;5068066;28;20028;-77
2024/01/30 12:18:42;;;;;;;32.50;23.17;;;8.10;93.90;;;;;;5065099;28;20040;-77
2024/01/30 12:21:08;;;;;;;37.42;22.83;;;8.20;99.90;;;;;;5066155;28;20067;-76
2024/01/30 12:23:35;;;;;;;32.78;22.02;;;8.20;1.00;;;;;;5070332;28;20025;-77
2024/01/30 12:26:03;;;;;;;31.48;22.63;;;8.20;1.00;;;;;;5062921;28;20246;-76
2024/01/30 12:28:29;;;;;;;33.05;23.63;;;8.20;29.80;;;;;;5061361;28;20063;-77
2024/01/30 12:31:03;;;;;;;67.95;23.48;;;8.40;1.00;;;;;;5054671;28;20024;-76
2024/01/30 12:33:29;;;;;;;30.58;22.67;;;8.40;1.00;;;;;;5065101;28;20020;-76
2024/01/30 12:35:56;;;;;;;36.13;22.75;;;8.40;1.00;;;;;;5056274;28;20529;-76
2024/01/30 12:38:23;;;;;;;33.28;22.65;;;8.60;1.00;;;;;;5070388;28;20118;-77
2024/01/30 12:40:50;;;;;;;30.27;20.63;;;8.60;1.00;;;;;;5069452;28;20028;-76
2024/01/30 12:43:16;;;;;;;32.25;22.23;;;8.60;99.90;;;;;;5071076;28;20328;-76